Terminal Aerodrome Forecast
Issued by NWS Cleveland, OH

Home | Current Version | Previous Version | Graphics & Text | Print | Product List | Glossary Off
Versions: 1 2 3 4 5 6 7 8 9 10 11 12 13 14 15 16 17 18 19 20 21 22 23 24 25

083
FTUS41 KCLE 211739
TAFMFD
TAF
KMFD 211739Z 2118/2218 28008KT 3SM HZ BKN006
     FM211900 29008KT P6SM SCT006
     FM220300 33012G20KT P6SM SCT025 BKN035
     FM221200 36012KT P6SM SCT035=

USA.gov is the U.S. government's official web portal to all federal, state and local government web resources and services.